sensor_id;sensor_type;location;lat;lon;timestamp;P1;durP1;ratioP1;P2;durP2;ratioP2
9254;SDS011;4663;49.120;9.730;2023-06-04T00:00:55;17.13;;;16.10;;
9254;SDS011;4663;49.120;9.730;2023-06-04T00:03:22;15.93;;;15.05;;
9254;SDS011;4663;49.120;9.730;2023-06-04T00:05:48;19.05;;;17.85;;
9254;SDS011;4663;49.120;9.730;2023-06-04T00:08:13;16.48;;;15.57;;
9254;SDS011;4663;49.120;9.730;2023-06-04T00:10:38;22.33;;;20.98;;
9254;SDS011;4663;49.120;9.730;2023-06-04T00:13:05;23.60;;;22.40;;
9254;SDS011;4663;49.120;9.730;2023-06-04T00:15:30;24.80;;;23.40;;
9254;SDS011;4663;49.120;9.730;2023-06-04T00:17:56;28.00;;;26.50;;
9254;SDS011;4663;49.120;9.730;2023-06-04T00:20:21;26.85;;;25.17;;
9254;SDS011;4663;49.120;9.730;2023-06-04T00:22:47;27.53;;;25.90;;
9254;SDS011;4663;49.120;9.730;2023-06-04T00:25:12;30.03;;;28.03;;
9254;SDS011;4663;49.120;9.730;2023-06-04T00:27:37;30.67;;;28.93;;
9254;SDS011;4663;49.120;9.730;2023-06-04T00:30:03;30.87;;;29.07;;
9254;SDS011;4663;49.120;9.730;2023-06-04T00:32:30;30.00;;;28.30;;
9254;SDS011;4663;49.120;9.730;2023-06-04T00:34:55;31.37;;;29.70;;
9254;SDS011;4663;49.120;9.730;2023-06-04T00:37:23;30.27;;;28.53;;
9254;SDS011;4663;49.120;9.730;2023-06-04T00:39:49;30.03;;;28.53;;
9254;SDS011;4663;49.120;9.730;2023-06-04T00:42:14;33.00;;;31.20;;
9254;SDS011;4663;49.120;9.730;2023-06-04T00:44:40;33.30;;;31.60;;
9254;SDS011;4663;49.120;9.730;2023-06-04T00:47:12;32.47;;;30.67;;
9254;SDS011;4663;49.120;9.730;2023-06-04T00:49:41;33.60;;;31.87;;
9254;SDS011;4663;49.120;9.730;2023-06-04T00:52:07;31.67;;;29.77;;
9254;SDS011;4663;49.120;9.730;2023-06-04T00:54:38;34.60;;;32.80;;
9254;SDS011;4663;49.120;9.730;2023-06-04T00:57:04;32.67;;;31.03;;
9254;SDS011;4663;49.120;9.730;2023-06-04T00:59:31;33.23;;;31.60;;
9254;SDS011;4663;49.120;9.730;2023-06-04T01:02:06;31.52;;;29.92;;
9254;SDS011;4663;49.120;9.730;2023-06-04T01:04:37;28.73;;;27.13;;
9254;SDS011;4663;49.120;9.730;2023-06-04T01:07:18;26.93;;;25.40;;
9254;SDS011;4663;49.120;9.730;2023-06-04T01:09:44;28.03;;;26.60;;
9254;SDS011;4663;49.120;9.730;2023-06-04T01:12:10;24.63;;;23.43;;
9254;SDS011;4663;49.120;9.730;2023-06-04T01:14:36;26.93;;;25.47;;
9254;SDS011;4663;49.120;9.730;2023-06-04T01:17:45;26.33;;;24.87;;
9254;SDS011;4663;49.120;9.730;2023-06-04T01:26:24;21.43;;;20.37;;
9254;SDS011;4663;49.120;9.730;2023-06-04T01:28:51;21.37;;;20.23;;
9254;SDS011;4663;49.120;9.730;2023-06-04T01:31:18;20.67;;;19.40;;
9254;SDS011;4663;49.120;9.730;2023-06-04T01:33:53;20.57;;;19.37;;
9254;SDS011;4663;49.120;9.730;2023-06-04T01:36:21;20.27;;;19.27;;
9254;SDS011;4663;49.120;9.730;2023-06-04T01:38:46;18.40;;;17.40;;
9254;SDS011;4663;49.120;9.730;2023-06-04T01:41:12;17.93;;;17.03;;
9254;SDS011;4663;49.120;9.730;2023-06-04T01:43:37;16.80;;;15.90;;
9254;SDS011;4663;49.120;9.730;2023-06-04T01:46:03;17.53;;;16.53;;
9254;SDS011;4663;49.120;9.730;2023-06-04T01:48:28;17.77;;;16.67;;
9254;SDS011;4663;49.120;9.730;2023-06-04T01:50:54;17.87;;;16.97;;
9254;SDS011;4663;49.120;9.730;2023-06-04T01:53:20;17.87;;;16.97;;
9254;SDS011;4663;49.120;9.730;2023-06-04T01:55:45;18.50;;;17.30;;
9254;SDS011;4663;49.120;9.730;2023-06-04T01:58:14;18.27;;;17.27;;
9254;SDS011;4663;49.120;9.730;2023-06-04T02:00:42;16.13;;;15.23;;
9254;SDS011;4663;49.120;9.730;2023-06-04T02:03:08;18.80;;;17.80;;
9254;SDS011;4663;49.120;9.730;2023-06-04T02:05:34;17.10;;;16.00;;
9254;SDS011;4663;49.120;9.730;2023-06-04T02:07:59;18.67;;;17.57;;
9254;SDS011;4663;49.120;9.730;2023-06-04T02:10:26;18.57;;;17.67;;
9254;SDS011;4663;49.120;9.730;2023-06-04T02:12:53;16.63;;;15.73;;
9254;SDS011;4663;49.120;9.730;2023-06-04T02:15:22;15.13;;;14.33;;
9254;SDS011;4663;49.120;9.730;2023-06-04T02:17:48;14.47;;;13.77;;
9254;SDS011;4663;49.120;9.730;2023-06-04T02:20:15;14.67;;;13.87;;
9254;SDS011;4663;49.120;9.730;2023-06-04T02:22:41;16.47;;;15.57;;
9254;SDS011;4663;49.120;9.730;2023-06-04T02:25:07;16.23;;;15.30;;
9254;SDS011;4663;49.120;9.730;2023-06-04T02:27:34;15.53;;;14.63;;
9254;SDS011;4663;49.120;9.730;2023-06-04T02:30:00;17.20;;;16.30;;
9254;SDS011;4663;49.120;9.730;2023-06-04T02:32:25;17.40;;;16.20;;
9254;SDS011;4663;49.120;9.730;2023-06-04T02:34:51;16.93;;;16.03;;
9254;SDS011;4663;49.120;9.730;2023-06-04T02:37:16;16.67;;;15.70;;
9254;SDS011;4663;49.120;9.730;2023-06-04T02:39:41;16.60;;;15.80;;
9254;SDS011;4663;49.120;9.730;2023-06-04T02:42:07;18.13;;;17.23;;
9254;SDS011;4663;49.120;9.730;2023-06-04T02:44:32;15.87;;;15.10;;
9254;SDS011;4663;49.120;9.730;2023-06-04T02:46:58;16.30;;;15.43;;
9254;SDS011;4663;49.120;9.730;2023-06-04T02:49:23;15.83;;;15.03;;
9254;SDS011;4663;49.120;9.730;2023-06-04T02:51:48;15.80;;;14.90;;
9254;SDS011;4663;49.120;9.730;2023-06-04T02:54:14;16.87;;;15.87;;
9254;SDS011;4663;49.120;9.730;2023-06-04T02:56:40;16.20;;;15.20;;
9254;SDS011;4663;49.120;9.730;2023-06-04T02:59:05;17.43;;;16.53;;
9254;SDS011;4663;49.120;9.730;2023-06-04T03:01:34;17.53;;;16.63;;
9254;SDS011;4663;49.120;9.730;2023-06-04T03:04:00;15.93;;;15.13;;
9254;SDS011;4663;49.120;9.730;2023-06-04T03:06:28;16.00;;;15.10;;
9254;SDS011;4663;49.120;9.730;2023-06-04T03:08:54;16.87;;;16.03;;
9254;SDS011;4663;49.120;9.730;2023-06-04T03:11:20;17.27;;;16.27;;
9254;SDS011;4663;49.120;9.730;2023-06-04T03:13:46;18.50;;;17.53;;
9254;SDS011;4663;49.120;9.730;2023-06-04T03:16:13;16.43;;;15.63;;
9254;SDS011;4663;49.120;9.730;2023-06-04T03:18:41;17.37;;;16.43;;
9254;SDS011;4663;49.120;9.730;2023-06-04T03:21:07;17.40;;;16.03;;
9254;SDS011;4663;49.120;9.730;2023-06-04T03:23:34;17.53;;;16.53;;
9254;SDS011;4663;49.120;9.730;2023-06-04T03:26:03;17.73;;;16.83;;
9254;SDS011;4663;49.120;9.730;2023-06-04T03:28:30;15.70;;;14.80;;
9254;SDS011;4663;49.120;9.730;2023-06-04T03:30:56;17.43;;;16.63;;
9254;SDS011;4663;49.120;9.730;2023-06-04T03:33:21;15.70;;;14.87;;
9254;SDS011;4663;49.120;9.730;2023-06-04T03:35:47;16.20;;;15.30;;
9254;SDS011;4663;49.120;9.730;2023-06-04T03:38:13;16.30;;;15.50;;
9254;SDS011;4663;49.120;9.730;2023-06-04T03:40:39;19.83;;;18.70;;
9254;SDS011;4663;49.120;9.730;2023-06-04T03:43:05;17.20;;;16.30;;
9254;SDS011;4663;49.120;9.730;2023-06-04T03:45:30;19.87;;;18.87;;
9254;SDS011;4663;49.120;9.730;2023-06-04T03:47:55;21.23;;;19.90;;
9254;SDS011;4663;49.120;9.730;2023-06-04T03:50:21;22.00;;;20.90;;
9254;SDS011;4663;49.120;9.730;2023-06-04T03:52:50;25.43;;;24.07;;
9254;SDS011;4663;49.120;9.730;2023-06-04T03:55:15;26.77;;;25.37;;
9254;SDS011;4663;49.120;9.730;2023-06-04T03:57:41;19.57;;;18.57;;
9254;SDS011;4663;49.120;9.730;2023-06-04T04:00:07;19.57;;;18.57;;
9254;SDS011;4663;49.120;9.730;2023-06-04T04:02:36;18.63;;;17.63;;
9254;SDS011;4663;49.120;9.730;2023-06-04T04:05:02;26.58;;;24.98;;
9254;SDS011;4663;49.120;9.730;2023-06-04T04:07:28;24.73;;;23.37;;
9254;SDS011;4663;49.120;9.730;2023-06-04T04:09:53;17.30;;;16.40;;
9254;SDS011;4663;49.120;9.730;2023-06-04T04:12:18;16.88;;;15.98;;
9254;SDS011;4663;49.120;9.730;2023-06-04T04:14:44;23.00;;;21.83;;
9254;SDS011;4663;49.120;9.730;2023-06-04T04:17:09;29.38;;;27.67;;
9254;SDS011;4663;49.120;9.730;2023-06-04T04:19:34;31.52;;;29.98;;
9254;SDS011;4663;49.120;9.730;2023-06-04T04:22:00;32.65;;;31.08;;
9254;SDS011;4663;49.120;9.730;2023-06-04T04:24:26;33.65;;;31.98;;
9254;SDS011;4663;49.120;9.730;2023-06-04T04:26:52;27.00;;;25.52;;
9254;SDS011;4663;49.120;9.730;2023-06-04T04:29:21;23.42;;;22.17;;
9254;SDS011;4663;49.120;9.730;2023-06-04T04:31:49;23.40;;;22.08;;
9254;SDS011;4663;49.120;9.730;2023-06-04T04:34:15;19.65;;;18.50;;
9254;SDS011;4663;49.120;9.730;2023-06-04T04:36:40;20.02;;;18.85;;
9254;SDS011;4663;49.120;9.730;2023-06-04T04:39:06;20.15;;;19.13;;
9254;SDS011;4663;49.120;9.730;2023-06-04T04:41:31;18.38;;;17.40;;
9254;SDS011;4663;49.120;9.730;2023-06-04T04:44:02;18.35;;;17.42;;
9254;SDS011;4663;49.120;9.730;2023-06-04T04:46:29;19.98;;;18.98;;
9254;SDS011;4663;49.120;9.730;2023-06-04T04:48:54;20.40;;;19.30;;
9254;SDS011;4663;49.120;9.730;2023-06-04T04:51:20;21.40;;;20.30;;
9254;SDS011;4663;49.120;9.730;2023-06-04T04:53:46;22.10;;;20.95;;
9254;SDS011;4663;49.120;9.730;2023-06-04T04:56:12;24.55;;;23.17;;
9254;SDS011;4663;49.120;9.730;2023-06-04T04:58:37;24.27;;;23.05;;
9254;SDS011;4663;49.120;9.730;2023-06-04T05:01:03;20.25;;;19.20;;
9254;SDS011;4663;49.120;9.730;2023-06-04T05:03:29;19.95;;;18.85;;
9254;SDS011;4663;49.120;9.730;2023-06-04T05:05:54;19.98;;;18.92;;
9254;SDS011;4663;49.120;9.730;2023-06-04T05:08:19;19.55;;;18.52;;
9254;SDS011;4663;49.120;9.730;2023-06-04T05:10:45;19.88;;;18.83;;
9254;SDS011;4663;49.120;9.730;2023-06-04T05:13:11;23.67;;;22.48;;
9254;SDS011;4663;49.120;9.730;2023-06-04T05:15:36;27.30;;;25.85;;
9254;SDS011;4663;49.120;9.730;2023-06-04T05:18:02;26.98;;;25.63;;
9254;SDS011;4663;49.120;9.730;2023-06-04T05:20:28;23.98;;;22.58;;
9254;SDS011;4663;49.120;9.730;2023-06-04T05:22:54;19.60;;;18.60;;
9254;SDS011;4663;49.120;9.730;2023-06-04T05:25:20;17.30;;;16.42;;
9254;SDS011;4663;49.120;9.730;2023-06-04T05:27:46;19.25;;;18.20;;
9254;SDS011;4663;49.120;9.730;2023-06-04T05:30:14;22.38;;;21.08;;
9254;SDS011;4663;49.120;9.730;2023-06-04T05:32:40;30.00;;;28.50;;
9254;SDS011;4663;49.120;9.730;2023-06-04T05:35:05;29.42;;;27.92;;
9254;SDS011;4663;49.120;9.730;2023-06-04T05:37:33;28.05;;;26.65;;
9254;SDS011;4663;49.120;9.730;2023-06-04T05:39:59;24.02;;;22.67;;
9254;SDS011;4663;49.120;9.730;2023-06-04T05:42:25;20.92;;;19.80;;
9254;SDS011;4663;49.120;9.730;2023-06-04T05:44:50;17.00;;;16.00;;
9254;SDS011;4663;49.120;9.730;2023-06-04T05:47:17;30.85;;;29.13;;
9254;SDS011;4663;49.120;9.730;2023-06-04T05:49:43;40.28;;;38.17;;
9254;SDS011;4663;49.120;9.730;2023-06-04T05:52:09;33.20;;;31.60;;
9254;SDS011;4663;49.120;9.730;2023-06-04T05:54:34;30.13;;;28.58;;
9254;SDS011;4663;49.120;9.730;2023-06-04T05:57:02;23.20;;;22.05;;
9254;SDS011;4663;49.120;9.730;2023-06-04T05:59:27;21.23;;;20.05;;
9254;SDS011;4663;49.120;9.730;2023-06-04T06:01:53;22.35;;;21.25;;
9254;SDS011;4663;49.120;9.730;2023-06-04T06:04:18;25.73;;;24.50;;
9254;SDS011;4663;49.120;9.730;2023-06-04T06:06:43;23.05;;;21.95;;
9254;SDS011;4663;49.120;9.730;2023-06-04T06:09:12;16.95;;;16.05;;
9254;SDS011;4663;49.120;9.730;2023-06-04T06:11:37;17.42;;;16.20;;
9254;SDS011;4663;49.120;9.730;2023-06-04T06:14:03;16.70;;;15.82;;
9254;SDS011;4663;49.120;9.730;2023-06-04T06:16:28;16.05;;;15.15;;
9254;SDS011;4663;49.120;9.730;2023-06-04T06:18:53;16.35;;;15.50;;
9254;SDS011;4663;49.120;9.730;2023-06-04T06:21:19;17.50;;;16.50;;
9254;SDS011;4663;49.120;9.730;2023-06-04T06:23:44;18.58;;;17.58;;
9254;SDS011;4663;49.120;9.730;2023-06-04T06:26:10;17.63;;;16.67;;
9254;SDS011;4663;49.120;9.730;2023-06-04T06:28:35;19.67;;;18.58;;
9254;SDS011;4663;49.120;9.730;2023-06-04T06:31:01;22.00;;;20.90;;
9254;SDS011;4663;49.120;9.730;2023-06-04T06:33:27;19.63;;;18.63;;
9254;SDS011;4663;49.120;9.730;2023-06-04T06:35:52;21.60;;;20.45;;
9254;SDS011;4663;49.120;9.730;2023-06-04T06:38:18;21.80;;;20.50;;
9254;SDS011;4663;49.120;9.730;2023-06-04T06:40:43;20.15;;;19.15;;
9254;SDS011;4663;49.120;9.730;2023-06-04T06:43:10;20.33;;;19.33;;
9254;SDS011;4663;49.120;9.730;2023-06-04T06:45:35;20.92;;;19.85;;
9254;SDS011;4663;49.120;9.730;2023-06-04T06:48:01;20.52;;;19.42;;
9254;SDS011;4663;49.120;9.730;2023-06-04T06:50:26;22.00;;;20.80;;
9254;SDS011;4663;49.120;9.730;2023-06-04T06:52:52;21.98;;;20.88;;
9254;SDS011;4663;49.120;9.730;2023-06-04T06:55:17;18.52;;;17.52;;
9254;SDS011;4663;49.120;9.730;2023-06-04T06:57:43;19.95;;;18.92;;
9254;SDS011;4663;49.120;9.730;2023-06-04T07:00:09;18.77;;;17.83;;
9254;SDS011;4663;49.120;9.730;2023-06-04T07:02:35;20.70;;;19.50;;
9254;SDS011;4663;49.120;9.730;2023-06-04T07:05:00;21.83;;;20.70;;
9254;SDS011;4663;49.120;9.730;2023-06-04T07:07:26;19.60;;;18.70;;
9254;SDS011;4663;49.120;9.730;2023-06-04T07:09:51;22.10;;;20.92;;
9254;SDS011;4663;49.120;9.730;2023-06-04T07:12:17;19.90;;;18.88;;
9254;SDS011;4663;49.120;9.730;2023-06-04T07:14:42;21.35;;;19.98;;
9254;SDS011;4663;49.120;9.730;2023-06-04T07:17:08;20.05;;;18.95;;
9254;SDS011;4663;49.120;9.730;2023-06-04T07:19:33;19.30;;;18.30;;
9254;SDS011;4663;49.120;9.730;2023-06-04T07:21:58;17.58;;;16.73;;
9254;SDS011;4663;49.120;9.730;2023-06-04T07:24:24;18.30;;;17.40;;
9254;SDS011;4663;49.120;9.730;2023-06-04T07:26:50;20.27;;;19.10;;
9254;SDS011;4663;49.120;9.730;2023-06-04T07:29:15;18.55;;;17.65;;
9254;SDS011;4663;49.120;9.730;2023-06-04T07:31:41;23.08;;;21.88;;
9254;SDS011;4663;49.120;9.730;2023-06-04T07:34:06;21.42;;;20.30;;
9254;SDS011;4663;49.120;9.730;2023-06-04T07:36:32;22.13;;;21.00;;
9254;SDS011;4663;49.120;9.730;2023-06-04T07:38:58;20.42;;;19.45;;
9254;SDS011;4663;49.120;9.730;2023-06-04T07:41:23;19.67;;;18.75;;
9254;SDS011;4663;49.120;9.730;2023-06-04T07:43:50;21.98;;;20.67;;
9254;SDS011;4663;49.120;9.730;2023-06-04T07:46:16;22.27;;;21.17;;
9254;SDS011;4663;49.120;9.730;2023-06-04T07:48:43;21.67;;;20.58;;
9254;SDS011;4663;49.120;9.730;2023-06-04T07:51:09;21.77;;;20.70;;
9254;SDS011;4663;49.120;9.730;2023-06-04T07:53:36;22.60;;;21.50;;
9254;SDS011;4663;49.120;9.730;2023-06-04T07:56:02;20.10;;;19.00;;
9254;SDS011;4663;49.120;9.730;2023-06-04T07:58:29;20.67;;;19.63;;
9254;SDS011;4663;49.120;9.730;2023-06-04T08:00:54;21.67;;;20.45;;
9254;SDS011;4663;49.120;9.730;2023-06-04T08:03:20;22.23;;;21.08;;
9254;SDS011;4663;49.120;9.730;2023-06-04T08:05:46;18.70;;;17.52;;
9254;SDS011;4663;49.120;9.730;2023-06-04T08:08:11;20.65;;;19.65;;
9254;SDS011;4663;49.120;9.730;2023-06-04T08:10:38;20.10;;;19.10;;
9254;SDS011;4663;49.120;9.730;2023-06-04T08:13:04;20.42;;;19.42;;
9254;SDS011;4663;49.120;9.730;2023-06-04T08:15:30;21.63;;;20.50;;
9254;SDS011;4663;49.120;9.730;2023-06-04T08:17:55;20.95;;;19.88;;
9254;SDS011;4663;49.120;9.730;2023-06-04T08:20:21;21.38;;;20.27;;
9254;SDS011;4663;49.120;9.730;2023-06-04T08:22:47;19.55;;;18.65;;
9254;SDS011;4663;49.120;9.730;2023-06-04T08:25:12;20.70;;;19.60;;
9254;SDS011;4663;49.120;9.730;2023-06-04T08:27:39;20.10;;;19.00;;
9254;SDS011;4663;49.120;9.730;2023-06-04T08:30:05;21.88;;;20.77;;
9254;SDS011;4663;49.120;9.730;2023-06-04T08:32:31;23.00;;;21.33;;
9254;SDS011;4663;49.120;9.730;2023-06-04T08:34:56;23.98;;;22.60;;
9254;SDS011;4663;49.120;9.730;2023-06-04T08:37:21;20.33;;;19.33;;
9254;SDS011;4663;49.120;9.730;2023-06-04T08:39:49;26.17;;;24.92;;
9254;SDS011;4663;49.120;9.730;2023-06-04T08:42:16;25.33;;;24.13;;
9254;SDS011;4663;49.120;9.730;2023-06-04T08:44:50;20.40;;;19.38;;
9254;SDS011;4663;49.120;9.730;2023-06-04T08:47:16;20.70;;;19.67;;
9254;SDS011;4663;49.120;9.730;2023-06-04T08:49:44;21.42;;;20.33;;
9254;SDS011;4663;49.120;9.730;2023-06-04T08:52:14;20.13;;;19.13;;
9254;SDS011;4663;49.120;9.730;2023-06-04T08:54:40;24.23;;;23.00;;
9254;SDS011;4663;49.120;9.730;2023-06-04T08:57:06;20.08;;;18.95;;
9254;SDS011;4663;49.120;9.730;2023-06-04T08:59:32;20.05;;;19.05;;
9254;SDS011;4663;49.120;9.730;2023-06-04T09:01:57;20.35;;;19.27;;
9254;SDS011;4663;49.120;9.730;2023-06-04T09:04:24;20.48;;;19.48;;
9254;SDS011;4663;49.120;9.730;2023-06-04T09:06:49;21.08;;;19.90;;
9254;SDS011;4663;49.120;9.730;2023-06-04T09:09:15;19.50;;;18.50;;
9254;SDS011;4663;49.120;9.730;2023-06-04T09:11:50;22.50;;;21.25;;
9254;SDS011;4663;49.120;9.730;2023-06-04T09:14:17;21.40;;;20.15;;
9254;SDS011;4663;49.120;9.730;2023-06-04T09:16:43;20.38;;;19.25;;
9254;SDS011;4663;49.120;9.730;2023-06-04T09:19:09;19.55;;;18.55;;
9254;SDS011;4663;49.120;9.730;2023-06-04T09:21:45;19.95;;;18.95;;
9254;SDS011;4663;49.120;9.730;2023-06-04T09:24:24;19.45;;;18.48;;
9254;SDS011;4663;49.120;9.730;2023-06-04T09:26:51;20.55;;;19.45;;
9254;SDS011;4663;49.120;9.730;2023-06-04T09:29:17;21.13;;;20.02;;
9254;SDS011;4663;49.120;9.730;2023-06-04T09:31:46;18.85;;;17.95;;
9254;SDS011;4663;49.120;9.730;2023-06-04T09:34:12;19.73;;;18.40;;
9254;SDS011;4663;49.120;9.730;2023-06-04T09:36:39;18.67;;;17.67;;
9254;SDS011;4663;49.120;9.730;2023-06-04T09:39:14;17.55;;;16.65;;
9254;SDS011;4663;49.120;9.730;2023-06-04T09:41:43;20.00;;;18.95;;
9254;SDS011;4663;49.120;9.730;2023-06-04T09:44:08;18.08;;;17.17;;
9254;SDS011;4663;49.120;9.730;2023-06-04T09:46:35;19.95;;;18.73;;
9254;SDS011;4663;49.120;9.730;2023-06-04T09:49:02;18.42;;;17.45;;
9254;SDS011;4663;49.120;9.730;2023-06-04T09:51:29;19.35;;;18.02;;
9254;SDS011;4663;49.120;9.730;2023-06-04T09:53:56;18.10;;;17.20;;
9254;SDS011;4663;49.120;9.730;2023-06-04T09:56:23;21.77;;;20.70;;
9254;SDS011;4663;49.120;9.730;2023-06-04T09:58:49;24.15;;;22.85;;
9254;SDS011;4663;49.120;9.730;2023-06-04T10:01:18;21.85;;;20.80;;
9254;SDS011;4663;49.120;9.730;2023-06-04T10:03:47;21.75;;;20.55;;
9254;SDS011;4663;49.120;9.730;2023-06-04T10:06:14;19.15;;;18.20;;
9254;SDS011;4663;49.120;9.730;2023-06-04T10:08:42;20.35;;;19.25;;
9254;SDS011;4663;49.120;9.730;2023-06-04T10:11:10;22.65;;;21.58;;
9254;SDS011;4663;49.120;9.730;2023-06-04T10:14:00;24.67;;;23.40;;
9254;SDS011;4663;49.120;9.730;2023-06-04T10:16:27;21.80;;;20.67;;
9254;SDS011;4663;49.120;9.730;2023-06-04T10:18:55;20.63;;;19.65;;
9254;SDS011;4663;49.120;9.730;2023-06-04T10:21:22;19.63;;;18.25;;
9254;SDS011;4663;49.120;9.730;2023-06-04T10:23:49;17.92;;;17.02;;
9254;SDS011;4663;49.120;9.730;2023-06-04T10:26:15;18.00;;;17.10;;
9254;SDS011;4663;49.120;9.730;2023-06-04T10:28:42;20.63;;;19.52;;
9254;SDS011;4663;49.120;9.730;2023-06-04T10:31:11;21.50;;;20.40;;
9254;SDS011;4663;49.120;9.730;2023-06-04T10:33:37;18.40;;;17.30;;
9254;SDS011;4663;49.120;9.730;2023-06-04T10:36:19;18.40;;;17.30;;
9254;SDS011;4663;49.120;9.730;2023-06-04T10:38:46;21.05;;;20.00;;
9254;SDS011;4663;49.120;9.730;2023-06-04T10:41:16;22.85;;;21.75;;
9254;SDS011;4663;49.120;9.730;2023-06-04T10:43:44;20.08;;;19.08;;
9254;SDS011;4663;49.120;9.730;2023-06-04T10:46:13;19.90;;;18.80;;
9254;SDS011;4663;49.120;9.730;2023-06-04T10:48:46;20.42;;;19.20;;
9254;SDS011;4663;49.120;9.730;2023-06-04T10:51:11;21.08;;;20.08;;
9254;SDS011;4663;49.120;9.730;2023-06-04T10:53:37;19.55;;;18.48;;
9254;SDS011;4663;49.120;9.730;2023-06-04T10:56:02;19.52;;;18.52;;
9254;SDS011;4663;49.120;9.730;2023-06-04T10:58:31;17.92;;;16.83;;
9254;SDS011;4663;49.120;9.730;2023-06-04T11:00:57;18.90;;;17.88;;
9254;SDS011;4663;49.120;9.730;2023-06-04T11:03:23;17.05;;;16.25;;
9254;SDS011;4663;49.120;9.730;2023-06-04T11:05:48;18.23;;;17.33;;
9254;SDS011;4663;49.120;9.730;2023-06-04T11:08:25;18.13;;;17.15;;
9254;SDS011;4663;49.120;9.730;2023-06-04T11:10:55;18.15;;;17.23;;
9254;SDS011;4663;49.120;9.730;2023-06-04T11:13:23;17.55;;;16.65;;
9254;SDS011;4663;49.120;9.730;2023-06-04T11:15:50;20.58;;;19.58;;
9254;SDS011;4663;49.120;9.730;2023-06-04T11:18:17;19.58;;;18.48;;
9254;SDS011;4663;49.120;9.730;2023-06-04T11:20:44;24.42;;;23.27;;
9254;SDS011;4663;49.120;9.730;2023-06-04T11:23:11;21.50;;;20.40;;
9254;SDS011;4663;49.120;9.730;2023-06-04T11:25:38;20.45;;;19.30;;
9254;SDS011;4663;49.120;9.730;2023-06-04T11:28:03;20.60;;;19.50;;
9254;SDS011;4663;49.120;9.730;2023-06-04T11:30:29;20.98;;;19.88;;
9254;SDS011;4663;49.120;9.730;2023-06-04T11:33:01;22.02;;;20.73;;
9254;SDS011;4663;49.120;9.730;2023-06-04T11:35:30;19.50;;;18.50;;
9254;SDS011;4663;49.120;9.730;2023-06-04T11:37:57;21.38;;;20.27;;
9254;SDS011;4663;49.120;9.730;2023-06-04T11:40:23;19.00;;;17.95;;
9254;SDS011;4663;49.120;9.730;2023-06-04T11:42:51;18.13;;;17.25;;
9254;SDS011;4663;49.120;9.730;2023-06-04T11:45:17;18.17;;;17.23;;
9254;SDS011;4663;49.120;9.730;2023-06-04T11:47:45;16.75;;;15.75;;
9254;SDS011;4663;49.120;9.730;2023-06-04T11:50:12;17.48;;;16.48;;
9254;SDS011;4663;49.120;9.730;2023-06-04T11:52:38;17.17;;;16.27;;
9254;SDS011;4663;49.120;9.730;2023-06-04T11:55:04;16.40;;;15.30;;
9254;SDS011;4663;49.120;9.730;2023-06-04T11:57:33;16.98;;;16.17;;
9254;SDS011;4663;49.120;9.730;2023-06-04T11:59:59;17.05;;;16.20;;
9254;SDS011;4663;49.120;9.730;2023-06-04T12:02:25;18.98;;;18.00;;
9254;SDS011;4663;49.120;9.730;2023-06-04T12:04:51;20.02;;;19.02;;
9254;SDS011;4663;49.120;9.730;2023-06-04T12:07:19;19.30;;;18.08;;
9254;SDS011;4663;49.120;9.730;2023-06-04T12:09:49;19.77;;;18.63;;
9254;SDS011;4663;49.120;9.730;2023-06-04T12:12:20;19.10;;;17.85;;
9254;SDS011;4663;49.120;9.730;2023-06-04T12:14:55;18.08;;;17.17;;
9254;SDS011;4663;49.120;9.730;2023-06-04T12:17:22;18.40;;;17.20;;
9254;SDS011;4663;49.120;9.730;2023-06-04T12:19:48;17.88;;;16.88;;
9254;SDS011;4663;49.120;9.730;2023-06-04T12:22:15;18.40;;;17.42;;
9254;SDS011;4663;49.120;9.730;2023-06-04T12:24:49;18.73;;;17.75;;
9254;SDS011;4663;49.120;9.730;2023-06-04T12:27:19;19.02;;;18.05;;
9254;SDS011;4663;49.120;9.730;2023-06-04T12:30:04;17.23;;;16.25;;
9254;SDS011;4663;49.120;9.730;2023-06-04T12:32:34;17.88;;;16.98;;
9254;SDS011;4663;49.120;9.730;2023-06-04T12:35:00;18.20;;;17.30;;
9254;SDS011;4663;49.120;9.730;2023-06-04T12:37:25;16.63;;;15.82;;
9254;SDS011;4663;49.120;9.730;2023-06-04T12:39:52;16.90;;;16.05;;
9254;SDS011;4663;49.120;9.730;2023-06-04T12:42:19;16.63;;;15.77;;
9254;SDS011;4663;49.120;9.730;2023-06-04T12:44:45;19.20;;;18.23;;
9254;SDS011;4663;49.120;9.730;2023-06-04T12:47:11;20.50;;;19.23;;
9254;SDS011;4663;49.120;9.730;2023-06-04T12:49:36;20.17;;;19.17;;
9254;SDS011;4663;49.120;9.730;2023-06-04T12:52:02;21.05;;;20.05;;
9254;SDS011;4663;49.120;9.730;2023-06-04T12:54:28;21.58;;;20.50;;
9254;SDS011;4663;49.120;9.730;2023-06-04T12:56:54;21.42;;;20.27;;
9254;SDS011;4663;49.120;9.730;2023-06-04T12:59:24;20.35;;;19.25;;
9254;SDS011;4663;49.120;9.730;2023-06-04T13:01:50;18.77;;;17.77;;
9254;SDS011;4663;49.120;9.730;2023-06-04T13:04:15;18.65;;;17.30;;
9254;SDS011;4663;49.120;9.730;2023-06-04T13:06:41;18.65;;;17.73;;
9254;SDS011;4663;49.120;9.730;2023-06-04T13:09:06;20.38;;;19.35;;
9254;SDS011;4663;49.120;9.730;2023-06-04T13:11:40;18.95;;;18.05;;
9254;SDS011;4663;49.120;9.730;2023-06-04T13:14:07;18.40;;;17.48;;
9254;SDS011;4663;49.120;9.730;2023-06-04T13:16:33;20.08;;;19.08;;
9254;SDS011;4663;49.120;9.730;2023-06-04T13:18:58;19.05;;;17.95;;
9254;SDS011;4663;49.120;9.730;2023-06-04T13:21:24;19.67;;;18.52;;
9254;SDS011;4663;49.120;9.730;2023-06-04T13:23:49;21.92;;;20.80;;
9254;SDS011;4663;49.120;9.730;2023-06-04T13:26:15;20.52;;;19.52;;
9254;SDS011;4663;49.120;9.730;2023-06-04T13:28:43;22.80;;;21.60;;
9254;SDS011;4663;49.120;9.730;2023-06-04T13:31:09;21.60;;;20.52;;
9254;SDS011;4663;49.120;9.730;2023-06-04T13:33:35;20.85;;;19.83;;
9254;SDS011;4663;49.120;9.730;2023-06-04T13:36:04;20.88;;;19.85;;
9254;SDS011;4663;49.120;9.730;2023-06-04T13:38:30;19.17;;;17.98;;
9254;SDS011;4663;49.120;9.730;2023-06-04T13:40:56;18.85;;;17.95;;
9254;SDS011;4663;49.120;9.730;2023-06-04T13:43:21;19.67;;;18.67;;
9254;SDS011;4663;49.120;9.730;2023-06-04T13:45:46;21.17;;;20.08;;
9254;SDS011;4663;49.120;9.730;2023-06-04T13:48:12;20.02;;;19.02;;
9254;SDS011;4663;49.120;9.730;2023-06-04T13:50:37;19.55;;;18.45;;
9254;SDS011;4663;49.120;9.730;2023-06-04T13:53:03;19.00;;;17.90;;
9254;SDS011;4663;49.120;9.730;2023-06-04T13:55:29;19.33;;;18.40;;
9254;SDS011;4663;49.120;9.730;2023-06-04T13:57:55;19.00;;;18.00;;
9254;SDS011;4663;49.120;9.730;2023-06-04T14:00:20;19.25;;;18.27;;
9254;SDS011;4663;49.120;9.730;2023-06-04T14:02:47;19.55;;;18.55;;
9254;SDS011;4663;49.120;9.730;2023-06-04T14:05:13;18.58;;;17.50;;
9254;SDS011;4663;49.120;9.730;2023-06-04T14:07:38;19.48;;;18.48;;
9254;SDS011;4663;49.120;9.730;2023-06-04T14:10:06;20.42;;;19.35;;
9254;SDS011;4663;49.120;9.730;2023-06-04T14:12:31;20.20;;;19.20;;
9254;SDS011;4663;49.120;9.730;2023-06-04T14:14:57;19.25;;;18.17;;
9254;SDS011;4663;49.120;9.730;2023-06-04T14:17:22;19.60;;;18.60;;
9254;SDS011;4663;49.120;9.730;2023-06-04T14:19:47;18.20;;;17.30;;
9254;SDS011;4663;49.120;9.730;2023-06-04T14:22:13;19.52;;;18.50;;
9254;SDS011;4663;49.120;9.730;2023-06-04T14:24:40;19.48;;;18.55;;
9254;SDS011;4663;49.120;9.730;2023-06-04T14:27:05;22.35;;;20.95;;
9254;SDS011;4663;49.120;9.730;2023-06-04T14:29:31;20.88;;;19.83;;
9254;SDS011;4663;49.120;9.730;2023-06-04T14:31:57;21.90;;;20.58;;
9254;SDS011;4663;49.120;9.730;2023-06-04T14:34:23;20.25;;;19.25;;
9254;SDS011;4663;49.120;9.730;2023-06-04T14:36:49;22.38;;;21.02;;
9254;SDS011;4663;49.120;9.730;2023-06-04T14:39:14;21.80;;;20.70;;
9254;SDS011;4663;49.120;9.730;2023-06-04T14:41:39;19.90;;;18.80;;
9254;SDS011;4663;49.120;9.730;2023-06-04T14:44:05;19.50;;;18.52;;
9254;SDS011;4663;49.120;9.730;2023-06-04T14:46:30;19.50;;;18.50;;
9254;SDS011;4663;49.120;9.730;2023-06-04T14:48:55;17.98;;;16.98;;
9254;SDS011;4663;49.120;9.730;2023-06-04T14:51:21;18.90;;;17.95;;